Time;durP1;ratioP1;P1;durP2;ratioP2;P2;SDS_P1;SDS_P2;PMS_P1;PMS_P2;Temp;Humidity;BMP_temperature;BMP_pressure;BME280_temperature;BME280_humidity;BME280_pressure;Samples;Min_cycle;Max_cycle;Signal;HPM_P1;HPM_P2
2022/01/04 17:10:21;;;;;;;0.30;0.30;;;;;;;5.02;100.00;99963.66;6246135;22;20364;-89
2022/01/04 17:15:32;;;;;;;0.22;0.22;;;;;;;4.98;100.00;99966.44;6249684;23;20012;-89
2022/01/04 17:15:36;;;;;;;0.50;0.50;;;;;;;4.95;100.00;99962.13;6251045;23;20043;-89
2022/01/04 17:18:02;;;;;;;0.52;0.43;;;;;;;5.01;100.00;99972.44;6249346;23;20091;-89
2022/01/04 17:20:28;;;;;;;0.40;0.40;;;;;;;5.00;100.00;99988.28;6250181;23;20075;-90
2022/01/04 17:22:53;;;;;;;0.40;0.40;;;;;;;5.01;100.00;99975.06;6250728;23;20008;-89
2022/01/04 17:25:18;;;;;;;0.35;0.35;;;;;;;4.90;100.00;99971.94;6250094;23;20000;-89
2022/01/04 17:27:46;;;;;;;1.95;0.52;;;;;;;4.90;100.00;99968.47;6259882;23;20011;-92
2022/01/04 17:30:16;;;;;;;0.47;0.47;;;;;;;4.82;100.00;99965.22;6251042;23;20028;-89
2022/01/04 17:32:41;;;;;;;0.50;0.50;;;;;;;4.78;100.00;99960.97;6249915;23;20000;-90
2022/01/04 17:35:07;;;;;;;0.40;0.40;;;;;;;4.84;100.00;99964.25;6249346;23;20051;-90
2022/01/04 17:37:34;;;;;;;0.30;0.30;;;;;;;4.82;100.00;99960.84;6251248;23;20007;-89
2022/01/04 17:40:00;;;;;;;0.40;0.40;;;;;;;4.89;100.00;99972.00;6250834;22;20004;-89
2022/01/04 17:42:27;;;;;;;0.65;0.65;;;;;;;4.82;100.00;99955.59;6252168;23;20004;-89
2022/01/04 17:44:53;;;;;;;0.40;0.40;;;;;;;4.81;100.00;99961.72;6252546;23;20027;-89
2022/01/04 17:47:19;;;;;;;0.55;0.55;;;;;;;4.85;100.00;99966.00;6252973;23;20004;-89
2022/01/04 17:49:48;;;;;;;1.42;1.33;;;;;;;4.83;100.00;99967.81;6253782;23;20368;-90
2022/01/04 17:52:13;;;;;;;0.63;0.50;;;;;;;4.83;100.00;99959.06;6254222;23;20016;-90
2022/01/04 17:54:46;;;;;;;0.30;0.30;;;;;;;4.77;100.00;99951.38;6253696;23;20057;-90
2022/01/04 17:57:11;;;;;;;0.30;0.30;;;;;;;4.84;100.00;99956.38;6253763;23;20071;-91
2022/01/04 17:59:36;;;;;;;0.30;0.30;;;;;;;4.79;100.00;99958.28;6254335;23;20408;-89
2022/01/04 18:02:02;;;;;;;0.40;0.40;;;;;;;4.84;100.00;99951.09;6252970;23;20035;-90
2022/01/04 18:04:27;;;;;;;0.30;0.30;;;;;;;4.74;100.00;99958.44;6256943;23;20000;-90
2022/01/04 18:06:53;;;;;;;0.40;0.40;;;;;;;4.78;100.00;99956.56;6273021;22;19999;-90
2022/01/04 18:09:18;;;;;;;0.50;0.50;;;;;;;4.73;100.00;99951.47;6273203;22;20047;-89
2022/01/04 18:11:44;;;;;;;0.30;0.30;;;;;;;4.76;100.00;99960.19;6273789;22;20008;-90
2022/01/04 18:14:11;;;;;;;1.75;1.02;;;;;;;4.82;100.00;99955.59;6273823;22;20034;-90
2022/01/04 18:16:38;;;;;;;0.40;0.40;;;;;;;4.80;100.00;99967.91;6273695;22;19988;-89
2022/01/04 18:19:03;;;;;;;0.65;0.63;;;;;;;4.88;100.00;99963.25;6273744;22;20019;-90
2022/01/04 18:21:28;;;;;;;2.25;0.45;;;;;;;4.95;100.00;99970.03;6273707;22;20039;-90
2022/01/04 18:23:54;;;;;;;0.30;0.30;;;;;;;5.01;100.00;99961.91;6273861;22;20011;-91
2022/01/04 18:26:19;;;;;;;0.40;0.40;;;;;;;5.00;100.00;99951.44;6273723;22;19988;-90
2022/01/04 18:28:45;;;;;;;0.30;0.30;;;;;;;4.87;100.00;99952.78;6272014;22;20008;-89
2022/01/04 18:31:11;;;;;;;0.40;0.40;;;;;;;4.81;100.00;99953.84;6252477;23;20071;-89
2022/01/04 18:33:36;;;;;;;0.65;0.65;;;;;;;4.76;100.00;99952.28;6250885;22;20028;-90
2022/01/04 18:36:02;;;;;;;0.40;0.40;;;;;;;4.80;100.00;99961.78;6250142;23;20016;-90
2022/01/04 18:38:28;;;;;;;0.30;0.30;;;;;;;4.80;100.00;99957.41;6250654;22;20058;-90
2022/01/04 18:40:57;;;;;;;0.30;0.30;;;;;;;4.71;100.00;99968.22;6250735;23;20000;-90
2022/01/04 18:43:23;;;;;;;1.50;1.40;;;;;;;4.66;100.00;99960.47;6250617;22;19992;-90
2022/01/04 18:45:48;;;;;;;0.40;0.40;;;;;;;4.72;100.00;99969.94;6252492;22;20510;-89
2022/01/04 18:48:14;;;;;;;0.30;0.30;;;;;;;4.65;100.00;99969.28;6249012;23;20004;-90
2022/01/04 18:50:39;;;;;;;0.32;0.32;;;;;;;4.61;100.00;99979.94;6248923;23;20420;-90
2022/01/04 18:53:04;;;;;;;0.20;0.20;;;;;;;4.58;100.00;99977.41;6249609;22;20004;-90
2022/01/04 18:55:30;;;;;;;0.30;0.30;;;;;;;4.60;100.00;99992.22;6249895;23;20000;-90
2022/01/04 18:57:55;;;;;;;0.30;0.30;;;;;;;4.75;100.00;100001.41;6249916;23;20024;-90
2022/01/04 19:00:20;;;;;;;0.30;0.30;;;;;;;4.77;100.00;100004.84;6248235;23;20004;-89
2022/01/04 19:02:46;;;;;;;0.77;0.77;;;;;;;4.82;100.00;100013.47;6248846;23;20413;-90
2022/01/04 19:05:12;;;;;;;0.30;0.30;;;;;;;4.76;100.00;100011.00;6248727;23;19997;-90
2022/01/04 19:07:41;;;;;;;0.30;0.30;;;;;;;4.71;100.00;100005.06;6249424;23;20008;-90
2022/01/04 19:10:10;;;;;;;0.20;0.20;;;;;;;4.77;100.00;100010.09;6248937;23;20019;-90
2022/01/04 19:12:36;;;;;;;0.68;0.68;;;;;;;4.69;100.00;100006.84;6248603;23;20016;-90
2022/01/04 19:15:03;;;;;;;0.30;0.30;;;;;;;4.66;100.00;100013.06;6249190;23;20005;-89
2022/01/04 19:17:29;;;;;;;0.30;0.30;;;;;;;4.61;100.00;100004.50;6248838;23;20007;-90
2022/01/04 19:19:55;;;;;;;1.27;1.17;;;;;;;4.56;100.00;100013.41;6247927;23;20000;-90
2022/01/04 19:22:22;;;;;;;0.30;0.30;;;;;;;4.55;100.00;100009.06;6249475;23;20056;-90
2022/01/04 19:24:49;;;;;;;0.45;0.45;;;;;;;4.41;100.00;100014.75;6247288;23;20000;-91
2022/01/04 19:27:14;;;;;;;0.30;0.30;;;;;;;4.45;100.00;100013.75;6248215;23;20000;-91
2022/01/04 19:29:39;;;;;;;0.30;0.30;;;;;;;4.44;100.00;100016.44;6247989;23;20039;-91
2022/01/04 19:32:32;;;;;;;0.40;0.40;;;;;;;4.48;100.00;100013.66;6248041;23;20024;-90
2022/01/04 19:37:41;;;;;;;0.30;0.30;;;;;;;4.47;100.00;100021.59;6247951;23;20061;-90
2022/01/04 19:40:07;;;;;;;0.52;0.45;;;;;;;4.43;100.00;100022.59;6249380;23;20000;-90
2022/01/04 19:42:32;;;;;;;0.30;0.30;;;;;;;4.43;100.00;100025.22;6250276;23;20015;-90
2022/01/04 19:44:58;;;;;;;0.32;0.32;;;;;;;4.43;100.00;100019.94;6249950;23;20332;-90
2022/01/04 19:47:24;;;;;;;0.30;0.30;;;;;;;4.40;100.00;100025.31;6249243;23;20004;-90
2022/01/04 19:49:49;;;;;;;0.40;0.35;;;;;;;4.38;100.00;100027.97;6250272;23;20004;-90
2022/01/04 19:52:15;;;;;;;0.30;0.30;;;;;;;4.38;100.00;100030.59;6250650;23;20487;-89
2022/01/04 19:54:41;;;;;;;0.77;0.77;;;;;;;4.37;100.00;100030.66;6250329;23;19996;-89
2022/01/04 19:57:07;;;;;;;0.30;0.30;;;;;;;4.38;100.00;100032.41;6250920;23;20058;-89
2022/01/04 19:59:32;;;;;;;0.45;0.45;;;;;;;4.40;100.00;100023.53;6250741;23;20012;-90
2022/01/04 20:01:57;;;;;;;0.30;0.30;;;;;;;4.40;100.00;100020.03;6249369;23;20000;-88
2022/01/04 20:04:23;;;;;;;1.00;0.90;;;;;;;4.40;100.00;100020.03;6251311;23;20005;-88
2022/01/04 20:06:48;;;;;;;4.05;0.63;;;;;;;4.34;100.00;100015.84;6248575;23;20015;-93
2022/01/04 20:09:14;;;;;;;0.30;0.30;;;;;;;4.25;100.00;100024.03;6248334;23;20103;-92
2022/01/04 20:11:40;;;;;;;0.50;0.50;;;;;;;4.22;100.00;100020.63;6248918;23;20004;-94
2022/01/04 20:14:05;;;;;;;0.35;0.35;;;;;;;4.32;100.00;100027.31;6248412;22;20008;-92
2022/01/04 20:16:30;;;;;;;1.83;1.55;;;;;;;4.34;100.00;100030.75;6249889;23;20007;-93
2022/01/04 20:18:56;;;;;;;0.30;0.30;;;;;;;4.36;100.00;100028.94;6248295;23;20007;-93
2022/01/04 20:21:21;;;;;;;0.57;0.57;;;;;;;4.28;100.00;100030.94;6250801;23;20008;-94
2022/01/04 20:23:55;;;;;;;0.63;0.63;;;;;;;4.28;100.00;100023.94;6258136;23;20057;-93
2022/01/04 20:26:35;;;;;;;0.38;0.38;;;;;;;4.31;100.00;100023.84;6255931;23;20003;-95
2022/01/04 20:29:18;;;;;;;0.30;0.30;;;;;;;4.32;100.00;100020.28;6258281;22;20005;-95
2022/01/04 20:31:57;;;;;;;0.45;0.45;;;;;;;4.25;100.00;100026.66;6263641;23;20008;-96
2022/01/04 20:34:23;;;;;;;0.30;0.30;;;;;;;4.18;100.00;100021.59;6259190;23;20004;-95
2022/01/04 20:36:49;;;;;;;0.82;0.82;;;;;;;4.16;100.00;100036.59;6260187;23;20054;-95
2022/01/04 20:39:15;;;;;;;0.43;0.38;;;;;;;4.18;100.00;100022.47;6256176;23;20054;-95
2022/01/04 20:41:44;;;;;;;0.30;0.30;;;;;;;4.33;100.00;100026.41;6257557;23;20024;-96
2022/01/04 20:44:20;;;;;;;0.40;0.40;;;;;;;4.28;100.00;100039.69;6257082;23;20019;-96
2022/01/04 20:46:46;;;;;;;0.50;0.50;;;;;;;4.33;100.00;100034.31;6240020;23;20012;-96
2022/01/04 20:49:14;;;;;;;0.52;0.52;;;;;;;4.47;100.00;100040.00;6267940;22;20035;-96
2022/01/04 20:51:41;;;;;;;0.50;0.50;;;;;;;4.47;100.00;100037.38;6265680;23;20000;-96
2022/01/04 20:56:52;;;;;;;0.30;0.30;;;;;;;4.37;100.00;100035.91;6264721;22;20020;-95
2022/01/04 20:59:17;;;;;;;0.30;0.30;;;;;;;4.24;100.00;100034.56;6268487;23;20034;-95
2022/01/04 21:01:46;;;;;;;0.30;0.30;;;;;;;4.13;100.00;100044.53;6260704;23;20011;-94
2022/01/04 21:04:11;;;;;;;1.85;0.90;;;;;;;4.16;100.00;100039.22;6263498;23;20027;-95
2022/01/04 21:06:37;;;;;;;1.20;0.85;;;;;;;4.00;100.00;100025.63;6263738;23;20008;-96
2022/01/04 21:09:13;;;;;;;0.40;0.40;;;;;;;4.01;100.00;100029.13;6262302;23;20027;-96
2022/01/04 21:11:45;;;;;;;0.40;0.40;;;;;;;3.91;100.00;100030.28;6266717;23;20024;-95
2022/01/04 21:14:13;;;;;;;0.30;0.30;;;;;;;3.98;100.00;100030.09;6269010;22;20004;-95
2022/01/04 21:16:38;;;;;;;0.30;0.30;;;;;;;3.90;100.00;100039.09;6231652;23;20664;-93
2022/01/04 21:19:13;;;;;;;0.85;0.85;;;;;;;3.88;100.00;100031.25;6255209;23;19996;-95
2022/01/04 21:21:45;;;;;;;0.38;0.38;;;;;;;3.79;100.00;100047.28;6257843;22;20012;-95
2022/01/04 21:24:10;;;;;;;0.50;0.47;;;;;;;3.75;100.00;100065.78;6251781;23;20006;-95
2022/01/04 21:26:45;;;;;;;0.50;0.50;;;;;;;3.66;100.00;100058.13;6258212;23;20020;-95
2022/01/04 21:29:11;;;;;;;0.38;0.38;;;;;;;3.69;100.00;100058.09;6272061;22;20076;-95
2022/01/04 21:31:45;;;;;;;0.60;0.60;;;;;;;3.73;100.00;100057.97;6272332;22;20008;-94
2022/01/04 21:34:11;;;;;;;0.47;0.47;;;;;;;3.65;100.00;100061.69;6272666;23;20012;-95
2022/01/04 21:36:45;;;;;;;0.40;0.40;;;;;;;3.66;100.00;100079.16;6270670;23;20048;-95
2022/01/04 21:39:10;;;;;;;0.40;0.40;;;;;;;3.63;100.00;100068.72;6255566;23;20015;-95
2022/01/04 21:41:39;;;;;;;0.30;0.30;;;;;;;3.60;100.00;100071.44;6254897;22;20008;-94
2022/01/04 21:44:10;;;;;;;0.30;0.30;;;;;;;3.59;100.00;100077.59;6264990;22;19992;-95
2022/01/04 21:46:35;;;;;;;0.40;0.40;;;;;;;3.61;100.00;100083.69;6244396;23;19999;-94
2022/01/04 21:49:01;;;;;;;0.52;0.52;;;;;;;3.57;100.00;100085.53;6270362;22;20080;-95
2022/01/04 21:51:39;;;;;;;0.30;0.30;;;;;;;3.69;100.00;100085.19;6261324;23;20000;-95
2022/01/04 21:54:04;;;;;;;0.30;0.30;;;;;;;3.79;100.00;100083.16;6258783;23;20156;-95
2022/01/04 21:56:39;;;;;;;0.30;0.30;;;;;;;3.82;100.00;100083.09;6260301;22;20003;-96
2022/01/04 21:59:05;;;;;;;0.35;0.35;;;;;;;3.71;100.00;100080.75;6260636;23;20002;-95
2022/01/04 22:01:34;;;;;;;0.30;0.30;;;;;;;3.66;100.00;100087.03;6259029;23;20004;-96
2022/01/04 22:04:46;;;;;;;0.47;0.47;;;;;;;3.69;100.00;100081.72;6262602;22;20016;-95
2022/01/04 22:07:14;;;;;;;0.50;0.40;;;;;;;3.67;100.00;100076.47;6250191;23;20012;-96
2022/01/04 22:09:44;;;;;;;0.30;0.30;;;;;;;3.87;100.00;100081.19;6256895;22;20023;-95
2022/01/04 22:12:12;;;;;;;0.60;0.60;;;;;;;3.87;100.00;100074.19;6260370;22;19984;-96
2022/01/04 22:14:38;;;;;;;0.30;0.30;;;;;;;3.93;100.00;100083.66;6251460;22;20004;-96
2022/01/04 22:17:09;;;;;;;0.40;0.40;;;;;;;3.94;100.00;100080.13;6249707;23;20083;-95
2022/01/04 22:19:47;;;;;;;0.47;0.47;;;;;;;3.88;100.00;100096.91;6255228;23;20008;-95
2022/01/04 22:22:20;;;;;;;0.50;0.50;;;;;;;3.86;100.00;100100.50;6265388;23;20004;-95
2022/01/04 22:24:54;;;;;;;0.30;0.30;;;;;;;3.76;100.00;100106.88;6264940;23;20015;-96
2022/01/04 22:27:22;;;;;;;0.45;0.45;;;;;;;3.82;100.00;100106.72;6265048;23;19997;-95
2022/01/04 22:29:53;;;;;;;0.30;0.30;;;;;;;3.74;100.00;100106.94;6263901;23;20034;-96
2022/01/04 22:32:21;;;;;;;0.40;0.40;;;;;;;3.73;100.00;100120.97;6263954;23;20011;-95
2022/01/04 22:34:49;;;;;;;0.30;0.30;;;;;;;3.68;100.00;100109.72;6264929;23;20508;-95
2022/01/04 22:37:21;;;;;;;0.30;0.30;;;;;;;3.57;100.00;100109.16;6266189;22;20031;-96
2022/01/04 22:39:56;;;;;;;0.40;0.40;;;;;;;3.52;100.00;100110.16;6266278;22;20012;-95
2022/01/04 22:42:21;;;;;;;0.30;0.30;;;;;;;3.44;100.00;100119.97;6272672;22;20026;-95
2022/01/04 22:44:47;;;;;;;0.30;0.30;;;;;;;3.44;100.00;100123.47;6272202;22;20033;-96
2022/01/04 22:47:13;;;;;;;0.30;0.30;;;;;;;3.38;100.00;100122.78;6271924;22;20039;-95
2022/01/04 22:49:40;;;;;;;0.30;0.30;;;;;;;3.41;100.00;100134.06;6267015;23;20004;-95
2022/01/04 22:52:08;;;;;;;0.52;0.52;;;;;;;3.51;100.00;100132.94;6265468;22;20024;-96
2022/01/04 22:54:49;;;;;;;0.38;0.38;;;;;;;3.49;100.00;100133.84;6264627;22;20012;-96
2022/01/04 22:57:18;;;;;;;0.30;0.30;;;;;;;3.35;100.00;100130.72;6265635;22;20005;-96
2022/01/04 22:59:48;;;;;;;0.30;0.30;;;;;;;3.26;100.00;100137.06;6264945;22;20012;-95
2022/01/04 23:02:32;;;;;;;0.30;0.30;;;;;;;3.45;100.00;100142.72;6265759;23;20361;-95
2022/01/04 23:04:57;;;;;;;0.30;0.30;;;;;;;3.42;100.00;100130.53;6256897;23;20066;-93
2022/01/04 23:07:23;;;;;;;0.55;0.55;;;;;;;3.44;100.00;100139.22;6250798;22;20009;-94
2022/01/04 23:10:05;;;;;;;0.60;0.60;;;;;;;3.43;100.00;100136.66;6252075;23;20008;-94
2022/01/04 23:12:31;;;;;;;0.30;0.30;;;;;;;3.44;100.00;100147.09;6258061;22;20015;-94
2022/01/04 23:14:56;;;;;;;0.50;0.50;;;;;;;3.35;100.00;100138.59;6260133;22;20351;-94
2022/01/04 23:17:39;;;;;;;0.30;0.30;;;;;;;3.47;100.00;100138.31;6259960;22;20020;-93
2022/01/04 23:20:14;;;;;;;0.85;0.85;;;;;;;3.31;100.00;100145.66;6256694;23;20019;-93
2022/01/04 23:22:42;;;;;;;0.40;0.40;;;;;;;3.28;100.00;100150.16;6258994;23;19992;-93
2022/01/04 23:25:32;;;;;;;0.38;0.38;;;;;;;3.29;100.00;100149.25;6261077;23;20417;-93
